Time;durP1;ratioP1;P1;durP2;ratioP2;P2;SDS_P1;SDS_P2;PMS_P1;PMS_P2;Temp;Humidity;BMP_temperature;BMP_pressure;BME280_temperature;BME280_humidity;BME280_pressure;Samples;Min_cycle;Max_cycle;Signal;HPM_P1;HPM_P2
2021/10/07 00:00:34;;;;;;;;;;;;;;;12.25;100.00;99541.05;112007;1196;61769;-80
2021/10/07 00:03:07;;;;;;;;;;;;;;;12.24;100.00;99544.52;111844;1196;67253;-79
2021/10/07 00:05:34;;;;;;;;;;;;;;;12.23;100.00;99546.88;111865;1197;61864;-81
2021/10/07 00:08:01;;;;;;;;;;;;;;;12.22;100.00;99543.74;111911;1196;62670;-80
2021/10/07 00:10:28;;;;;;;;;;;;;;;12.23;100.00;99542.82;111848;1196;61869;-80
2021/10/07 00:12:54;;;;;;;;;;;;;;;12.23;100.00;99541.92;111853;1196;61842;-80
2021/10/07 00:15:21;;;;;;;;;;;;;;;12.23;100.00;99542.98;111862;1195;66851;-80
2021/10/07 00:17:48;;;;;;;;;;;;;;;12.23;100.00;99542.41;111866;1196;61889;-81
2021/10/07 00:20:15;;;;;;;;;;;;;;;12.24;100.00;99543.06;111924;1197;64000;-81
2021/10/07 00:22:43;;;;;;;;;;;;;;;12.25;100.00;99541.63;111943;1196;61840;-81
2021/10/07 00:25:10;;;;;;;;;;;;;;;12.24;100.00;99543.98;111997;1195;61878;-81
2021/10/07 00:27:37;;;;;;;;;;;;;;;12.23;100.00;99547.38;111841;1196;65578;-81
2021/10/07 00:30:11;;;;;;;;;;;;;;;12.24;100.00;99549.31;111916;1195;61861;-81
2021/10/07 00:32:45;;;;;;;;;;;;;;;12.24;100.00;99547.35;111854;1196;64758;-81
2021/10/07 00:40:09;;;;;;;;;;;;;;;12.23;100.00;99552.05;111935;1196;67760;-81
2021/10/07 00:42:36;;;;;;;;;;;;;;;12.23;100.00;99552.08;111930;1195;61853;-81
2021/10/07 00:45:03;;;;;;;;;;;;;;;12.22;100.00;99551.60;111917;1196;63713;-81
2021/10/07 00:47:30;;;;;;;;;;;;;;;12.21;100.00;99552.52;111961;1197;61902;-82
2021/10/07 00:49:56;;;;;;;;;;;;;;;12.21;100.00;99555.55;111946;1195;61865;-81
2021/10/07 00:52:23;;;;;;;;;;;;;;;12.19;100.00;99557.81;111937;1196;61876;-81
2021/10/07 00:54:52;;;;;;;;;;;;;;;12.18;100.00;99557.89;111994;1196;61783;-81
2021/10/07 00:57:19;;;;;;;;;;;;;;;12.17;100.00;99557.59;112018;1195;62666;-81
2021/10/07 00:59:46;;;;;;;;;;;;;;;12.17;100.00;99556.35;111967;1195;61865;-82
2021/10/07 01:02:13;;;;;;;;;;;;;;;12.18;100.00;99553.07;111978;1195;61842;-81
2021/10/07 01:04:39;;;;;;;;;;;;;;;12.17;100.00;99551.88;111953;1195;61904;-82
2021/10/07 01:07:07;;;;;;;;;;;;;;;12.17;100.00;99552.27;111926;1195;61992;-82
2021/10/07 01:09:34;;;;;;;;;;;;;;;12.15;100.00;99552.58;111909;1196;64057;-82
2021/10/07 01:12:02;;;;;;;;;;;;;;;12.14;100.00;99552.29;111945;1197;61808;-81
2021/10/07 01:14:36;;;;;;;;;;;;;;;12.12;100.00;99555.43;111984;1196;61891;-80
2021/10/07 01:17:04;;;;;;;;;;;;;;;12.11;100.00;99562.28;111980;1195;65599;-81
2021/10/07 01:19:30;;;;;;;;;;;;;;;12.10;100.00;99560.02;111898;1195;61847;-81
2021/10/07 01:21:57;;;;;;;;;;;;;;;12.11;100.00;99562.99;111950;1196;62656;-81
2021/10/07 01:24:25;;;;;;;;;;;;;;;12.12;100.00;99562.79;111969;1195;62281;-80
2021/10/07 01:26:51;;;;;;;;;;;;;;;12.13;100.00;99562.85;111929;1196;61720;-81
2021/10/07 01:29:18;;;;;;;;;;;;;;;12.14;100.00;99567.95;111899;1195;61784;-80
2021/10/07 01:31:44;;;;;;;;;;;;;;;12.15;100.00;99565.24;111952;1195;61901;-81
2021/10/07 01:34:11;;;;;;;;;;;;;;;12.16;100.00;99566.75;111965;1196;61827;-81
2021/10/07 01:36:37;;;;;;;;;;;;;;;12.17;100.00;99570.09;111913;1196;61785;-81
2021/10/07 01:39:04;;;;;;;;;;;;;;;12.16;100.00;99573.33;111860;1196;61869;-81
2021/10/07 01:41:30;;;;;;;;;;;;;;;12.15;100.00;99577.66;111821;1196;61879;-81
2021/10/07 01:43:57;;;;;;;;;;;;;;;12.14;100.00;99575.80;111778;1196;61909;-81
2021/10/07 01:46:23;;;;;;;;;;;;;;;12.12;100.00;99573.06;111928;1196;61847;-81
2021/10/07 01:48:50;;;;;;;;;;;;;;;12.10;100.00;99572.48;111956;1196;61874;-81
2021/10/07 01:51:16;;;;;;;;;;;;;;;12.10;100.00;99576.08;111913;1196;61894;-81
2021/10/07 01:53:43;;;;;;;;;;;;;;;12.10;100.00;99580.66;111924;1195;62204;-81
2021/10/07 01:56:09;;;;;;;;;;;;;;;12.10;100.00;99583.33;111824;1196;61885;-81
2021/10/07 01:58:36;;;;;;;;;;;;;;;12.10;100.00;99585.13;111917;1196;61766;-81
2021/10/07 02:01:02;;;;;;;;;;;;;;;12.10;100.00;99583.90;111918;1197;61863;-80
2021/10/07 02:03:29;;;;;;;;;;;;;;;12.11;100.00;99585.60;111903;1196;61863;-80
2021/10/07 02:05:55;;;;;;;;;;;;;;;12.11;100.00;99580.59;111895;1196;61875;-80
2021/10/07 02:08:22;;;;;;;;;;;;;;;12.12;100.00;99579.83;111899;1196;61845;-82
2021/10/07 02:10:48;;;;;;;;;;;;;;;12.12;100.00;99582.72;111870;1196;61798;-81
2021/10/07 02:13:14;;;;;;;;;;;;;;;12.11;100.00;99579.39;111956;1196;61860;-80
2021/10/07 02:15:41;;;;;;;;;;;;;;;12.11;100.00;99581.02;111935;1196;62485;-80
2021/10/07 02:18:07;;;;;;;;;;;;;;;12.11;100.00;99580.12;111886;1196;61864;-80
2021/10/07 02:20:34;;;;;;;;;;;;;;;12.11;100.00;99584.35;111841;1196;61885;-82
2021/10/07 02:23:00;;;;;;;;;;;;;;;12.11;100.00;99583.30;111773;1196;61797;-81
2021/10/07 02:25:27;;;;;;;;;;;;;;;12.10;100.00;99587.30;111829;1196;61869;-80
2021/10/07 02:27:54;;;;;;;;;;;;;;;12.10;100.00;99593.90;111927;1196;61821;-79
2021/10/07 02:30:20;;;;;;;;;;;;;;;12.08;100.00;99596.27;111856;1196;61865;-80
2021/10/07 02:32:47;;;;;;;;;;;;;;;12.08;100.00;99599.33;111900;1196;61837;-80
2021/10/07 02:35:14;;;;;;;;;;;;;;;12.08;100.00;99599.31;111837;1196;61865;-81
2021/10/07 02:37:42;;;;;;;;;;;;;;;12.08;100.00;99600.19;111909;1197;61836;-81
2021/10/07 02:40:09;;;;;;;;;;;;;;;12.10;100.00;99603.13;111940;1196;61965;-81
2021/10/07 02:42:35;;;;;;;;;;;;;;;12.09;100.00;99602.63;111847;1197;66666;-81
2021/10/07 02:45:03;;;;;;;;;;;;;;;12.08;100.00;99600.73;111862;1195;61829;-81
2021/10/07 02:47:29;;;;;;;;;;;;;;;12.08;100.00;99601.43;111878;1195;65304;-81
2021/10/07 02:49:56;;;;;;;;;;;;;;;12.08;100.00;99605.71;111928;1195;61864;-81
2021/10/07 02:52:22;;;;;;;;;;;;;;;12.07;100.00;99609.19;111869;1195;61814;-81
2021/10/07 02:54:49;;;;;;;;;;;;;;;12.06;100.00;99612.11;111849;1195;61840;-81
2021/10/07 02:57:15;;;;;;;;;;;;;;;12.05;100.00;99613.37;111855;1196;61842;-81
2021/10/07 02:59:43;;;;;;;;;;;;;;;12.04;100.00;99610.48;111823;1196;61855;-81
2021/10/07 03:02:10;;;;;;;;;;;;;;;12.02;100.00;99609.86;111811;1196;61917;-81
2021/10/07 03:04:36;;;;;;;;;;;;;;;12.02;100.00;99609.88;111917;1196;61855;-82
2021/10/07 03:07:03;;;;;;;;;;;;;;;12.01;100.00;99609.21;111868;1195;61798;-82
2021/10/07 03:09:29;;;;;;;;;;;;;;;11.99;100.00;99611.27;111912;1196;61854;-82
2021/10/07 03:11:56;;;;;;;;;;;;;;;11.98;100.00;99608.88;111828;1196;64141;-82
2021/10/07 03:14:22;;;;;;;;;;;;;;;11.97;100.00;99608.75;111866;1195;62540;-81
2021/10/07 03:16:49;;;;;;;;;;;;;;;11.97;100.00;99611.96;111935;1196;61824;-82
2021/10/07 03:19:15;;;;;;;;;;;;;;;11.96;100.00;99614.89;111879;1197;61799;-81
2021/10/07 03:21:42;;;;;;;;;;;;;;;11.95;100.00;99616.20;111886;1196;61953;-82
2021/10/07 03:24:08;;;;;;;;;;;;;;;11.93;100.00;99620.39;111883;1195;62502;-80
2021/10/07 03:26:35;;;;;;;;;;;;;;;11.92;100.00;99617.60;111854;1196;61846;-82
2021/10/07 03:29:02;;;;;;;;;;;;;;;11.92;100.00;99616.58;111885;1196;61870;-81
2021/10/07 03:31:29;;;;;;;;;;;;;;;11.91;100.00;99617.89;111923;1196;66678;-83
2021/10/07 03:33:55;;;;;;;;;;;;;;;11.92;100.00;99619.25;111919;1195;61838;-82
2021/10/07 03:36:22;;;;;;;;;;;;;;;11.92;100.00;99619.73;111910;1196;64927;-83
2021/10/07 03:38:49;;;;;;;;;;;;;;;11.92;100.00;99623.50;111972;1195;61855;-84
2021/10/07 03:41:15;;;;;;;;;;;;;;;11.90;100.00;99617.92;111912;1195;61975;-83
2021/10/07 03:43:42;;;;;;;;;;;;;;;11.89;100.00;99620.27;111808;1196;65648;-83
2021/10/07 03:46:08;;;;;;;;;;;;;;;11.89;100.00;99621.73;111972;1195;61795;-82
2021/10/07 03:48:35;;;;;;;;;;;;;;;11.90;100.00;99627.34;111984;1196;61853;-81
2021/10/07 03:51:02;;;;;;;;;;;;;;;11.92;100.00;99629.91;111831;1196;61845;-82
2021/10/07 03:53:29;;;;;;;;;;;;;;;11.92;100.00;99631.53;111725;1196;61846;-82
2021/10/07 03:55:57;;;;;;;;;;;;;;;11.93;100.00;99632.52;111925;1196;66878;-83
2021/10/07 03:58:23;;;;;;;;;;;;;;;11.93;100.00;99638.23;111968;1196;61850;-82
2021/10/07 04:00:50;;;;;;;;;;;;;;;11.91;100.00;99639.08;111924;1195;61884;-83
2021/10/07 04:03:16;;;;;;;;;;;;;;;11.90;100.00;99642.67;111864;1195;61900;-82
2021/10/07 04:05:42;;;;;;;;;;;;;;;11.90;100.00;99646.23;111911;1195;61759;-83
2021/10/07 04:08:09;;;;;;;;;;;;;;;11.92;100.00;99646.48;111899;1196;61809;-85
2021/10/07 04:10:36;;;;;;;;;;;;;;;11.92;100.00;99643.44;111868;1195;61868;-82
2021/10/07 04:13:03;;;;;;;;;;;;;;;11.91;100.00;99646.15;111857;1195;64029;-84
2021/10/07 04:15:30;;;;;;;;;;;;;;;11.92;100.00;99650.58;111922;1195;61795;-82
2021/10/07 04:17:56;;;;;;;;;;;;;;;11.92;100.00;99651.09;111847;1195;61793;-83
2021/10/07 04:20:22;;;;;;;;;;;;;;;11.92;100.00;99647.90;111855;1195;61895;-83
2021/10/07 04:22:49;;;;;;;;;;;;;;;11.92;100.00;99648.04;111934;1195;61893;-82
2021/10/07 04:25:15;;;;;;;;;;;;;;;11.94;100.00;99650.64;111892;1195;61866;-82
2021/10/07 04:27:42;;;;;;;;;;;;;;;11.95;100.00;99638.98;111906;1195;61862;-81
2021/10/07 04:30:09;;;;;;;;;;;;;;;11.94;100.00;99640.63;111802;1196;61867;-81
2021/10/07 04:32:36;;;;;;;;;;;;;;;11.92;100.00;99636.47;111900;1196;66681;-81
2021/10/07 04:35:03;;;;;;;;;;;;;;;11.90;100.00;99635.39;111904;1197;61833;-82
2021/10/07 04:37:30;;;;;;;;;;;;;;;11.87;100.00;99634.29;111908;1195;63825;-82
2021/10/07 04:39:56;;;;;;;;;;;;;;;11.84;100.00;99633.55;111881;1196;61865;-80
2021/10/07 04:42:23;;;;;;;;;;;;;;;11.82;100.00;99629.77;111897;1195;61892;-80
2021/10/07 04:44:50;;;;;;;;;;;;;;;11.79;100.00;99628.84;111918;1195;65474;-80
2021/10/07 04:47:16;;;;;;;;;;;;;;;11.79;100.00;99631.89;111960;1195;61814;-80
2021/10/07 04:49:43;;;;;;;;;;;;;;;11.78;100.00;99638.05;111906;1196;63673;-80
2021/10/07 04:52:09;;;;;;;;;;;;;;;11.76;100.00;99642.08;111870;1195;61853;-81
2021/10/07 04:54:36;;;;;;;;;;;;;;;11.75;100.00;99646.40;111935;1195;61777;-81
2021/10/07 04:57:02;;;;;;;;;;;;;;;11.75;100.00;99649.11;111928;1195;61821;-80
2021/10/07 04:59:29;;;;;;;;;;;;;;;11.73;100.00;99646.73;111888;1195;61844;-82
2021/10/07 05:01:55;;;;;;;;;;;;;;;11.71;100.00;99649.52;111922;1195;61839;-82
2021/10/07 05:04:22;;;;;;;;;;;;;;;11.70;100.00;99650.44;111890;1195;61969;-81
2021/10/07 05:06:48;;;;;;;;;;;;;;;11.72;100.00;99654.05;111943;1195;61946;-81
2021/10/07 05:09:17;;;;;;;;;;;;;;;11.75;100.00;99659.25;111921;1197;61818;-81
2021/10/07 05:11:43;;;;;;;;;;;;;;;11.75;100.00;99661.16;111938;1195;61840;-80
2021/10/07 05:14:10;;;;;;;;;;;;;;;11.76;100.00;99668.98;111939;1195;63774;-81
2021/10/07 05:16:36;;;;;;;;;;;;;;;11.76;100.00;99670.54;111960;1196;61864;-82
2021/10/07 05:19:03;;;;;;;;;;;;;;;11.76;100.00;99672.31;111803;1196;61770;-81
2021/10/07 05:21:29;;;;;;;;;;;;;;;11.76;100.00;99674.97;111909;1196;61828;-81
2021/10/07 05:23:56;;;;;;;;;;;;;;;11.77;100.00;99677.77;111954;1195;61862;-82
2021/10/07 05:26:23;;;;;;;;;;;;;;;11.78;100.00;99683.56;111952;1195;62617;-82
2021/10/07 05:28:49;;;;;;;;;;;;;;;11.81;100.00;99686.46;111835;1196;61895;-81
2021/10/07 05:31:16;;;;;;;;;;;;;;;11.83;100.00;99688.64;111930;1195;61867;-81
2021/10/07 05:33:43;;;;;;;;;;;;;;;11.84;100.00;99691.58;111981;1195;66073;-81
2021/10/07 05:36:09;;;;;;;;;;;;;;;11.85;100.00;99691.89;111903;1195;61827;-81
2021/10/07 05:38:36;;;;;;;;;;;;;;;11.87;100.00;99696.07;111875;1195;61792;-80
2021/10/07 05:41:03;;;;;;;;;;;;;;;11.91;100.00;99699.09;111907;1195;61875;-81
2021/10/07 05:43:29;;;;;;;;;;;;;;;11.94;100.00;99695.52;111962;1195;62565;-81
2021/10/07 05:45:56;;;;;;;;;;;;;;;11.97;100.00;99695.63;111888;1195;61774;-81
2021/10/07 05:48:22;;;;;;;;;;;;;;;12.02;100.00;99697.27;111932;1195;61933;-80
2021/10/07 05:50:49;;;;;;;;;;;;;;;12.06;100.00;99697.96;111859;1195;61919;-81
2021/10/07 05:53:15;;;;;;;;;;;;;;;12.10;100.00;99702.14;111871;1196;61876;-81
2021/10/07 05:55:42;;;;;;;;;;;;;;;12.15;100.00;99706.69;111905;1195;61840;-81
2021/10/07 05:58:09;;;;;;;;;;;;;;;12.17;100.00;99707.95;111882;1195;68134;-81
2021/10/07 06:00:35;;;;;;;;;;;;;;;12.18;100.00;99709.13;111930;1195;61878;-80
2021/10/07 06:03:02;;;;;;;;;;;;;;;12.19;100.00;99708.34;111912;1196;64320;-80
2021/10/07 06:05:28;;;;;;;;;;;;;;;12.20;100.00;99708.29;111933;1195;61866;-82
2021/10/07 06:07:55;;;;;;;;;;;;;;;12.20;100.00;99709.92;111991;1195;61961;-80
2021/10/07 06:10:21;;;;;;;;;;;;;;;12.21;100.00;99710.91;111902;1195;61782;-81
2021/10/07 06:12:48;;;;;;;;;;;;;;;12.21;100.00;99708.20;111911;1195;61879;-80
2021/10/07 06:15:14;;;;;;;;;;;;;;;12.23;100.00;99709.34;111836;1195;62504;-81
2021/10/07 06:17:41;;;;;;;;;;;;;;;12.25;100.00;99708.71;111846;1196;61869;-81
2021/10/07 06:20:29;;;;;;;;;;;;;;;12.27;100.00;99706.95;111889;1195;61817;-81
2021/10/07 06:22:56;;;;;;;;;;;;;;;12.31;100.00;99705.83;111905;1195;66748;-81
2021/10/07 06:25:23;;;;;;;;;;;;;;;12.35;100.00;99708.99;111862;1195;61878;-81
2021/10/07 06:27:50;;;;;;;;;;;;;;;12.39;100.00;99703.38;111876;1196;62762;-81
2021/10/07 06:30:17;;;;;;;;;;;;;;;12.45;100.00;99707.10;111908;1195;61802;-81
2021/10/07 06:32:44;;;;;;;;;;;;;;;12.52;100.00;99705.75;111922;1195;62263;-81
2021/10/07 06:35:11;;;;;;;;;;;;;;;12.59;100.00;99704.08;111906;1195;65581;-81
2021/10/07 06:37:38;;;;;;;;;;;;;;;12.68;100.00;99709.23;111899;1195;61839;-81
2021/10/07 06:40:05;;;;;;;;;;;;;;;12.79;100.00;99710.64;111895;1195;62778;-81
2021/10/07 06:42:33;;;;;;;;;;;;;;;12.91;100.00;99710.73;111839;1196;61938;-81
2021/10/07 06:44:59;;;;;;;;;;;;;;;13.03;100.00;99708.02;111892;1195;61827;-80
2021/10/07 06:47:26;;;;;;;;;;;;;;;13.13;100.00;99706.45;111896;1195;67550;-81
2021/10/07 06:49:53;;;;;;;;;;;;;;;13.22;100.00;99709.10;111916;1195;61868;-81
2021/10/07 06:52:19;;;;;;;;;;;;;;;13.29;100.00;99709.56;111900;1195;61869;-81
2021/10/07 06:54:46;;;;;;;;;;;;;;;13.33;100.00;99711.39;111918;1195;61862;-82
2021/10/07 06:57:12;;;;;;;;;;;;;;;13.35;100.00;99715.17;111917;1195;61784;-82
2021/10/07 06:59:39;;;;;;;;;;;;;;;13.38;100.00;99716.62;111937;1195;61898;-81
2021/10/07 07:02:05;;;;;;;;;;;;;;;13.41;100.00;99720.84;111964;1195;61789;-82
2021/10/07 07:04:32;;;;;;;;;;;;;;;13.47;100.00;99717.77;111876;1196;61855;-83
2021/10/07 07:06:58;;;;;;;;;;;;;;;13.56;100.00;99715.91;111945;1196;61855;-80
2021/10/07 07:09:25;;;;;;;;;;;;;;;13.64;100.00;99717.17;111970;1195;61874;-81
2021/10/07 07:11:51;;;;;;;;;;;;;;;13.72;100.00;99715.58;111932;1195;61869;-82
2021/10/07 07:14:18;;;;;;;;;;;;;;;13.79;100.00;99716.33;111883;1195;61813;-82
2021/10/07 07:16:44;;;;;;;;;;;;;;;13.87;100.00;99718.48;111849;1196;62541;-82
2021/10/07 07:19:11;;;;;;;;;;;;;;;13.92;99.98;99720.95;111785;1196;61846;-82
2021/10/07 07:21:38;;;;;;;;;;;;;;;13.96;99.75;99721.23;111997;1195;61849;-82
2021/10/07 07:24:04;;;;;;;;;;;;;;;14.01;99.81;99725.15;111956;1195;61901;-82
2021/10/07 07:26:32;;;;;;;;;;;;;;;14.08;99.49;99728.08;111835;1196;61843;-82
2021/10/07 07:28:59;;;;;;;;;;;;;;;14.14;99.38;99730.20;111918;1195;65061;-82
2021/10/07 07:31:26;;;;;;;;;;;;;;;14.21;99.15;99733.05;111911;1195;61849;-82
2021/10/07 07:33:53;;;;;;;;;;;;;;;14.29;98.79;99732.50;111981;1196;61834;-82
2021/10/07 07:36:21;;;;;;;;;;;;;;;14.39;98.66;99738.77;111933;1195;65470;-82
2021/10/07 07:38:48;;;;;;;;;;;;;;;14.48;98.48;99740.98;111958;1195;61845;-82
2021/10/07 07:41:16;;;;;;;;;;;;;;;14.56;98.32;99740.42;111972;1195;64005;-82
2021/10/07 07:43:44;;;;;;;;;;;;;;;14.64;98.39;99743.84;112063;1195;61918;-80
2021/10/07 07:46:11;;;;;;;;;;;;;;;14.67;98.32;99745.54;111985;1195;61799;-80
2021/10/07 07:48:38;;;;;;;;;;;;;;;14.70;98.16;99748.38;111954;1195;68122;-82
2021/10/07 07:51:05;;;;;;;;;;;;;;;14.69;97.76;99747.94;111946;1195;61824;-80
2021/10/07 07:53:31;;;;;;;;;;;;;;;14.65;97.53;99754.45;111938;1195;63963;-80
2021/10/07 07:55:58;;;;;;;;;;;;;;;14.62;97.76;99761.11;111962;1195;61814;-81
2021/10/07 07:58:24;;;;;;;;;;;;;;;14.56;97.43;99763.55;111967;1195;61826;-81
2021/10/07 08:00:51;;;;;;;;;;;;;;;14.47;97.43;99768.05;111946;1195;66847;-81
2021/10/07 08:03:17;;;;;;;;;;;;;;;14.42;97.33;99770.05;111951;1195;61837;-81
2021/10/07 08:05:44;;;;;;;;;;;;;;;14.38;97.23;99774.42;111954;1195;62986;-81
2021/10/07 08:08:10;;;;;;;;;;;;;;;14.33;97.13;99779.42;111913;1195;61880;-81
2021/10/07 08:10:37;;;;;;;;;;;;;;;14.23;97.00;99782.60;111943;1196;61928;-81
2021/10/07 08:13:03;;;;;;;;;;;;;;;14.18;97.27;99783.50;111962;1196;61863;-81
2021/10/07 08:15:30;;;;;;;;;;;;;;;14.15;97.38;99780.69;111975;1195;61875;-81
2021/10/07 08:17:56;;;;;;;;;;;;;;;14.11;97.45;99782.38;111915;1195;61869;-81
2021/10/07 08:20:23;;;;;;;;;;;;;;;14.07;97.28;99788.02;111921;1195;61869;-81
2021/10/07 08:22:50;;;;;;;;;;;;;;;14.06;97.28;99788.44;111905;1195;61889;-81
2021/10/07 08:25:17;;;;;;;;;;;;;;;14.10;97.36;99791.16;111962;1195;65435;-81
2021/10/07 08:27:45;;;;;;;;;;;;;;;14.12;97.18;99792.09;111914;1195;61866;-81
2021/10/07 08:30:13;;;;;;;;;;;;;;;14.12;97.31;99792.67;111921;1195;63705;-81
2021/10/07 08:32:41;;;;;;;;;;;;;;;14.14;97.22;99796.11;111941;1195;62445;-80
2021/10/07 08:35:08;;;;;;;;;;;;;;;14.16;97.14;99794.70;111959;1196;61798;-80
2021/10/07 08:37:36;;;;;;;;;;;;;;;14.15;97.21;99794.25;111852;1196;65614;-81
2021/10/07 08:40:03;;;;;;;;;;;;;;;14.14;97.09;99791.27;111871;1196;61754;-83
2021/10/07 08:42:31;;;;;;;;;;;;;;;14.15;97.04;99790.31;111887;1196;64023;-80
2021/10/07 08:44:57;;;;;;;;;;;;;;;14.15;97.14;99791.00;111885;1196;62009;-81
2021/10/07 08:47:25;;;;;;;;;;;;;;;14.11;97.13;99793.95;111812;1196;61862;-82
2021/10/07 08:49:52;;;;;;;;;;;;;;;14.07;97.49;99795.16;111876;1196;66815;-82
2021/10/07 08:52:20;;;;;;;;;;;;;;;14.00;97.25;99795.42;111767;1196;61933;-82
2021/10/07 08:54:47;;;;;;;;;;;;;;;13.92;97.11;99799.42;111881;1196;62631;-82
2021/10/07 08:57:14;;;;;;;;;;;;;;;13.83;97.15;99799.63;111833;1196;61933;-83
2021/10/07 08:59:41;;;;;;;;;;;;;;;13.72;97.11;99794.86;111829;1196;61852;-80
2021/10/07 09:02:22;;;;;;;;;;;;;;;13.61;97.43;99793.60;111767;1196;65744;-80
2021/10/07 09:04:48;;;;;;;;;;;;;;;13.53;97.73;99796.09;111720;1196;61891;-81
2021/10/07 09:07:15;;;;;;;;;;;;;;;13.47;97.94;99800.04;111738;1197;62343;-80
2021/10/07 09:09:42;;;;;;;;;;;;;;;13.49;98.17;99803.86;111821;1196;61796;-82
2021/10/07 09:12:13;;;;;;;;;;;;;;;13.56;98.00;99804.46;111872;1196;61792;-81
2021/10/07 09:14:41;;;;;;;;;;;;;;;13.63;97.91;99804.02;111809;1196;65458;-79
2021/10/07 09:17:08;;;;;;;;;;;;;;;13.77;97.95;99804.33;111880;1196;61872;-80
2021/10/07 09:19:39;;;;;;;;;;;;;;;13.93;97.66;99805.58;111843;1196;62630;-80
2021/10/07 09:22:14;;;;;;;;;;;;;;;14.09;97.21;99803.80;111845;1196;61865;-80
2021/10/07 09:24:42;;;;;;;;;;;;;;;14.15;96.91;99802.45;111840;1196;61788;-80
2021/10/07 09:27:13;;;;;;;;;;;;;;;14.30;96.74;99802.70;111785;1196;66624;-82
2021/10/07 09:29:41;;;;;;;;;;;;;;;14.43;96.34;99798.94;111834;1196;61802;-80
2021/10/07 09:32:09;;;;;;;;;;;;;;;14.51;96.48;99800.16;111831;1196;64031;-82
2021/10/07 09:34:46;;;;;;;;;;;;;;;14.55;96.42;99800.45;111783;1196;62668;-82
2021/10/07 09:37:16;;;;;;;;;;;;;;;14.55;96.10;99795.41;111848;1196;61870;-82
2021/10/07 09:39:51;;;;;;;;;;;;;;;14.54;95.88;99793.89;111847;1196;67786;-82
2021/10/07 09:42:20;;;;;;;;;;;;;;;14.49;95.82;99797.25;111902;1196;61860;-81
2021/10/07 09:45:06;;;;;;;;;;;;;;;14.46;96.03;99798.48;111740;1196;64031;-82
2021/10/07 09:47:33;;;;;;;;;;;;;;;14.52;95.63;99801.17;111799;1196;61892;-82
2021/10/07 09:50:26;;;;;;;;;;;;;;;14.52;95.66;99801.88;111923;1196;61860;-81
2021/10/07 09:52:58;;;;;;;;;;;;;;;14.56;95.71;99798.05;111844;1196;67319;-84
2021/10/07 09:55:26;;;;;;;;;;;;;;;14.59;95.56;99801.19;111863;1196;61853;-81
2021/10/07 09:57:56;;;;;;;;;;;;;;;14.59;95.53;99801.73;111907;1196;62373;-80
2021/10/07 10:00:26;;;;;;;;;;;;;;;14.63;95.45;99802.15;111807;1196;61794;-82
2021/10/07 10:02:54;;;;;;;;;;;;;;;14.73;95.37;99798.03;111882;1196;61772;-81
2021/10/07 10:05:20;;;;;;;;;;;;;;;14.85;94.93;99802.37;111874;1196;67819;-81
2021/10/07 10:07:47;;;;;;;;;;;;;;;14.88;94.76;99800.89;111851;1196;61782;-81
2021/10/07 10:10:14;;;;;;;;;;;;;;;14.86;94.65;99799.84;111790;1196;64086;-81
2021/10/07 10:12:41;;;;;;;;;;;;;;;14.84;94.42;99800.67;111862;1196;61878;-81
2021/10/07 10:15:08;;;;;;;;;;;;;;;14.83;94.31;99799.50;111920;1196;61904;-81
2021/10/07 10:17:35;;;;;;;;;;;;;;;14.89;94.26;99797.85;111787;1196;67738;-82
2021/10/07 10:20:05;;;;;;;;;;;;;;;15.07;94.00;99798.99;111755;1196;62533;-82
2021/10/07 10:22:32;;;;;;;;;;;;;;;15.31;93.37;99799.91;111840;1196;62646;-82
2021/10/07 10:24:59;;;;;;;;;;;;;;;15.53;93.08;99800.52;111870;1196;61866;-81
2021/10/07 10:27:44;;;;;;;;;;;;;;;15.64;92.20;99799.32;111910;1196;61866;-81
2021/10/07 10:30:18;;;;;;;;;;;;;;;15.69;91.80;99804.66;111906;1196;65294;-81
2021/10/07 10:32:44;;;;;;;;;;;;;;;15.78;91.52;99801.13;111855;1196;61828;-81
2021/10/07 10:35:34;;;;;;;;;;;;;;;15.85;91.18;99801.86;111773;1197;63662;-81
2021/10/07 10:38:02;;;;;;;;;;;;;;;15.98;90.79;99801.61;111833;1196;61780;-81
2021/10/07 10:40:29;;;;;;;;;;;;;;;16.11;90.43;99801.73;111902;1196;61961;-82
2021/10/07 10:43:15;;;;;;;;;;;;;;;16.24;89.99;99801.20;111794;1196;66960;-81
2021/10/07 10:45:47;;;;;;;;;;;;;;;16.42;89.81;99799.44;111947;1196;61770;-81
2021/10/07 10:48:33;;;;;;;;;;;;;;;16.64;89.47;99805.13;111949;1195;62655;-81
2021/10/07 10:51:00;;;;;;;;;;;;;;;16.73;88.40;99804.16;111970;1195;62321;-81
2021/10/07 10:53:27;;;;;;;;;;;;;;;16.69;88.13;99805.93;111949;1195;61873;-81
2021/10/07 10:55:53;;;;;;;;;;;;;;;16.58;88.01;99808.77;111950;1195;61853;-81
2021/10/07 10:58:20;;;;;;;;;;;;;;;16.48;88.20;99812.58;111951;1195;61876;-81
2021/10/07 11:00:48;;;;;;;;;;;;;;;16.43;88.29;99809.20;111950;1195;61958;-81
2021/10/07 11:03:18;;;;;;;;;;;;;;;16.45;88.15;99804.93;111922;1195;61856;-81
2021/10/07 11:05:57;;;;;;;;;;;;;;;16.52;87.99;99805.15;111974;1195;61836;-81
2021/10/07 11:08:24;;;;;;;;;;;;;;;16.56;87.96;99799.95;111961;1195;65698;-81
2021/10/07 11:10:52;;;;;;;;;;;;;;;16.58;87.70;99803.02;111768;1195;61844;-81
2021/10/07 11:13:20;;;;;;;;;;;;;;;16.58;87.25;99803.23;112016;1195;62786;-81
2021/10/07 11:15:49;;;;;;;;;;;;;;;16.54;87.23;99805.30;111883;1196;61963;-81
2021/10/07 11:18:15;;;;;;;;;;;;;;;16.48;87.06;99803.67;111938;1195;61877;-81
2021/10/07 11:20:42;;;;;;;;;;;;;;;16.32;86.77;99802.95;111921;1195;66647;-81
2021/10/07 11:23:11;;;;;;;;;;;;;;;16.21;86.80;99802.14;111957;1195;61887;-81
2021/10/07 11:25:39;;;;;;;;;;;;;;;16.12;86.89;99802.90;111976;1195;62744;-81
2021/10/07 11:28:06;;;;;;;;;;;;;;;15.97;86.20;99804.87;111793;1196;62041;-81
2021/10/07 11:30:35;;;;;;;;;;;;;;;15.85;85.89;99805.65;111982;1195;61945;-80
2021/10/07 11:33:02;;;;;;;;;;;;;;;15.88;86.04;99805.80;111959;1195;66860;-80
2021/10/07 11:35:29;;;;;;;;;;;;;;;16.06;85.87;99804.37;111954;1195;61821;-80
2021/10/07 11:37:58;;;;;;;;;;;;;;;16.21;85.35;99804.29;111980;1195;64712;-81
2021/10/07 11:40:25;;;;;;;;;;;;;;;16.42;85.01;99803.94;112009;1195;61897;-82
2021/10/07 11:42:54;;;;;;;;;;;;;;;16.63;84.76;99803.20;111995;1195;61872;-81
2021/10/07 11:45:22;;;;;;;;;;;;;;;16.66;84.69;99799.17;111966;1195;66531;-81
2021/10/07 11:47:50;;;;;;;;;;;;;;;16.56;84.68;99798.73;112030;1195;61821;-81
2021/10/07 11:50:18;;;;;;;;;;;;;;;16.42;84.41;99800.91;111972;1195;62360;-81
2021/10/07 11:52:46;;;;;;;;;;;;;;;16.35;83.85;99798.02;112027;1195;61869;-81
2021/10/07 11:55:13;;;;;;;;;;;;;;;16.33;83.58;99796.25;111905;1195;61829;-81
2021/10/07 11:57:53;;;;;;;;;;;;;;;16.39;84.08;99794.48;112011;1195;66774;-82
2021/10/07 12:00:39;;;;;;;;;;;;;;;16.63;84.37;99797.91;111837;1196;61850;-81
2021/10/07 12:03:11;;;;;;;;;;;;;;;16.86;83.76;99799.23;112020;1195;64122;-81
2021/10/07 12:05:38;;;;;;;;;;;;;;;16.93;83.26;99796.90;111987;1195;61864;-81
2021/10/07 12:08:06;;;;;;;;;;;;;;;16.86;83.32;99793.81;111982;1195;61788;-81
2021/10/07 12:10:34;;;;;;;;;;;;;;;16.79;83.35;99794.36;111933;1195;66861;-81
2021/10/07 12:13:20;;;;;;;;;;;;;;;16.74;83.11;99796.73;111676;1196;61853;-82
2021/10/07 12:16:14;;;;;;;;;;;;;;;16.73;83.46;99800.96;111884;1197;62341;-81
2021/10/07 12:18:41;;;;;;;;;;;;;;;16.72;83.10;99800.17;111885;1196;61804;-81
2021/10/07 12:21:10;;;;;;;;;;;;;;;16.73;83.42;99797.39;111824;1196;61879;-81
2021/10/07 12:23:55;;;;;;;;;;;;;;;16.76;83.07;99795.92;111905;1196;66850;-81
2021/10/07 12:26:26;;;;;;;;;;;;;;;16.75;82.72;99794.16;111976;1196;61820;-81
2021/10/07 12:28:54;;;;;;;;;;;;;;;16.77;82.87;99795.10;111963;1196;63764;-81
2021/10/07 12:31:21;;;;;;;;;;;;;;;16.90;82.51;99796.41;111910;1196;61840;-81
2021/10/07 12:34:08;;;;;;;;;;;;;;;17.06;82.16;99798.88;111851;1196;61769;-81
2021/10/07 12:36:40;;;;;;;;;;;;;;;17.20;82.30;99798.23;111918;1196;66825;-80
2021/10/07 12:39:19;;;;;;;;;;;;;;;17.26;82.12;99805.50;111787;1196;61872;-81